Time;durP1;ratioP1;P1;durP2;ratioP2;P2;SDS_P1;SDS_P2;PMS_P1;PMS_P2;Temp;Humidity;BMP_temperature;BMP_pressure;BME280_temperature;BME280_humidity;BME280_pressure;Samples;Min_cycle;Max_cycle;Signal;HPM_P1;HPM_P2
2022/03/29 00:00:36;;;;;;;2.42;1.60;;;;;;;-148.56;100.00;61375.16;4948058;28;20035;-26
2022/03/29 00:03:02;;;;;;;2.13;1.17;;;;;;;-148.56;100.00;61375.16;4948415;28;20212;-29
2022/03/29 00:05:27;;;;;;;2.45;1.40;;;;;;;-148.56;100.00;61375.16;4944929;28;20023;-27
2022/03/29 00:07:53;;;;;;;3.58;1.40;;;;;;;-148.56;100.00;61375.16;4949493;28;20023;-34
2022/03/29 00:10:18;;;;;;;1.45;1.15;;;;;;;-148.56;100.00;61375.16;4950053;28;20026;-34
2022/03/29 00:12:43;;;;;;;3.83;1.30;;;;;;;-148.56;100.00;61375.16;4947156;28;20038;-33
2022/03/29 00:15:10;;;;;;;2.67;1.40;;;;;;;-148.56;100.00;61375.16;4944600;28;20050;-32
2022/03/29 00:17:35;;;;;;;1.98;1.10;;;;;;;-148.56;100.00;61375.16;4948987;28;20037;-32
2022/03/29 00:20:01;;;;;;;1.60;1.23;;;;;;;-148.56;100.00;61375.16;4948387;28;20030;-32
2022/03/29 00:22:26;;;;;;;1.98;1.40;;;;;;;-148.56;100.00;61375.16;4950632;28;20607;-33
2022/03/29 00:24:51;;;;;;;2.05;1.17;;;;;;;-148.56;100.00;61375.16;4946450;28;20045;-34
2022/03/29 00:27:17;;;;;;;1.80;1.10;;;;;;;-148.56;100.00;61375.16;4948046;28;20037;-30
2022/03/29 00:29:42;;;;;;;1.85;1.17;;;;;;;-148.56;100.00;61375.16;4929621;28;20039;-28
2022/03/29 00:32:08;;;;;;;4.45;1.20;;;;;;;-148.56;100.00;61375.16;4948759;28;20039;-31
2022/03/29 00:34:36;;;;;;;2.80;1.10;;;;;;;-148.56;100.00;61375.16;4945512;28;20030;-32
2022/03/29 00:37:02;;;;;;;2.28;1.20;;;;;;;-148.56;100.00;61375.16;4949551;28;20035;-31
2022/03/29 00:39:28;;;;;;;1.92;1.05;;;;;;;-148.56;100.00;61375.16;4945628;28;20041;-32
2022/03/29 00:41:53;;;;;;;2.00;1.30;;;;;;;-148.56;100.00;61375.16;4949568;28;20496;-31
2022/03/29 00:44:18;;;;;;;2.28;1.20;;;;;;;-148.56;100.00;61375.16;4929499;28;20062;-26
2022/03/29 00:46:47;;;;;;;2.35;1.60;;;;;;;-148.56;100.00;61375.16;4947037;28;20026;-33
2022/03/29 00:49:12;;;;;;;1.88;1.10;;;;;;;-148.56;100.00;61375.16;4945153;28;20034;-30
2022/03/29 00:51:37;;;;;;;1.48;1.00;;;;;;;-148.56;100.00;61375.16;4944003;28;20050;-31
2022/03/29 00:54:04;;;;;;;3.38;1.30;;;;;;;-148.56;100.00;61375.16;4948622;28;20034;-34
2022/03/29 00:56:29;;;;;;;1.90;1.30;;;;;;;-148.56;100.00;61375.16;4951588;28;20033;-28
2022/03/29 00:58:54;;;;;;;2.38;1.50;;;;;;;-148.56;100.00;61375.16;4936589;28;20030;-28
2022/03/29 01:01:20;;;;;;;2.13;1.00;;;;;;;-148.56;100.00;61375.16;4937104;28;20113;-26
2022/03/29 01:03:47;;;;;;;2.85;1.10;;;;;;;-148.56;100.00;61375.16;4946665;28;20341;-30
2022/03/29 01:06:13;;;;;;;1.77;1.10;;;;;;;-148.56;100.00;61375.16;4945455;28;20027;-31
2022/03/29 01:08:38;;;;;;;2.10;1.40;;;;;;;-148.56;100.00;61375.16;4949936;28;20049;-29
2022/03/29 01:11:07;;;;;;;3.60;1.10;;;;;;;-148.56;100.00;61375.16;4949570;28;20035;-33
2022/03/29 01:13:32;;;;;;;4.35;1.30;;;;;;;-148.56;100.00;61375.16;4945947;28;20035;-27
2022/03/29 01:17:38;;;;;;;1.38;1.08;;;;;;;-148.56;100.00;61375.16;4929548;28;20026;-37
2022/03/29 01:18:45;;;;;;;2.35;1.20;;;;;;;-148.56;100.00;61375.16;4934238;28;22086;-31
2022/03/29 01:21:10;;;;;;;3.13;1.42;;;;;;;-148.56;100.00;61375.16;4898220;28;20032;-28
2022/03/29 01:23:35;;;;;;;1.48;1.20;;;;;;;-148.56;100.00;61375.16;4907984;28;20026;-30
2022/03/29 01:26:01;;;;;;;3.95;1.83;;;;;;;-148.56;100.00;61375.16;4909163;28;22365;-33
2022/03/29 01:28:26;;;;;;;2.30;1.25;;;;;;;-148.56;100.00;61375.16;4934565;28;20136;-33
2022/03/29 01:30:52;;;;;;;2.78;1.17;;;;;;;-148.56;100.00;61375.16;4932164;28;20023;-33
2022/03/29 01:33:18;;;;;;;2.55;1.58;;;;;;;-148.56;100.00;61375.16;4911236;28;20046;-28
2022/03/29 01:35:43;;;;;;;1.60;1.30;;;;;;;-148.56;100.00;61375.16;4928985;28;20034;-35
2022/03/29 01:38:10;;;;;;;2.15;1.20;;;;;;;-148.56;100.00;61375.16;4917059;28;20509;-31
2022/03/29 01:40:35;;;;;;;3.70;1.20;;;;;;;-148.56;100.00;61375.16;4916441;28;20042;-28
2022/03/29 01:43:01;;;;;;;2.92;1.30;;;;;;;-148.56;100.00;61375.16;4943577;28;20392;-29
2022/03/29 01:45:28;;;;;;;1.52;1.10;;;;;;;-148.56;100.00;61375.16;4944365;28;20057;-26
2022/03/29 01:47:53;;;;;;;1.25;1.08;;;;;;;-148.56;100.00;61375.16;4947833;28;20121;-34
2022/03/29 01:50:19;;;;;;;2.00;1.35;;;;;;;-148.56;100.00;61375.16;4930184;28;20035;-35
2022/03/29 01:52:46;;;;;;;2.33;1.45;;;;;;;-148.56;100.00;61375.16;4943880;28;20109;-30
2022/03/29 01:55:13;;;;;;;2.08;1.10;;;;;;;-148.56;100.00;61375.16;4943237;28;21797;-33
2022/03/29 01:57:38;;;;;;;1.60;1.23;;;;;;;-148.56;100.00;61375.16;4947659;28;20157;-33
2022/03/29 02:02:49;;;;;;;3.85;1.10;;;;;;;-148.56;100.00;61375.16;4947543;28;21059;-34
2022/03/29 02:05:14;;;;;;;1.23;1.02;;;;;;;-148.56;100.00;61375.16;4946126;28;20039;-36
2022/03/29 02:07:40;;;;;;;2.38;1.50;;;;;;;-148.56;100.00;61375.16;4943796;28;20066;-34
2022/03/29 02:10:06;;;;;;;1.30;1.20;;;;;;;-148.56;100.00;61375.16;4945673;28;20038;-32
2022/03/29 02:12:33;;;;;;;4.03;1.45;;;;;;;-148.56;100.00;61375.16;4943548;28;20708;-29
2022/03/29 02:14:58;;;;;;;1.48;1.08;;;;;;;-148.56;100.00;61375.16;4948597;28;20610;-26
2022/03/29 02:17:24;;;;;;;2.13;1.42;;;;;;;-148.56;100.00;61375.16;4955803;28;20030;-28
2022/03/29 02:19:49;;;;;;;2.97;1.40;;;;;;;-148.56;100.00;61375.16;4956044;28;20559;-30
2022/03/29 02:22:14;;;;;;;1.90;1.20;;;;;;;-148.56;100.00;61375.16;4952271;28;20089;-30
2022/03/29 02:24:40;;;;;;;1.88;1.40;;;;;;;-148.56;100.00;61375.16;4955291;28;20023;-34
2022/03/29 02:27:06;;;;;;;1.65;0.90;;;;;;;-148.56;100.00;61375.16;4951305;28;20030;-31
2022/03/29 02:29:33;;;;;;;1.52;1.20;;;;;;;-148.56;100.00;61375.16;4953831;28;20117;-28
2022/03/29 02:31:58;;;;;;;3.97;1.30;;;;;;;-148.56;100.00;61375.16;4939764;28;20038;-31
2022/03/29 02:34:24;;;;;;;1.63;1.10;;;;;;;-148.56;100.00;61375.16;4940301;28;20077;-29
2022/03/29 02:36:50;;;;;;;1.77;1.30;;;;;;;-148.56;100.00;61375.16;4952237;28;20085;-29
2022/03/29 02:39:15;;;;;;;1.75;1.33;;;;;;;-148.56;100.00;61375.16;4956824;28;20041;-33
2022/03/29 02:41:41;;;;;;;1.25;1.02;;;;;;;-148.56;100.00;61375.16;4929139;28;20033;-29
2022/03/29 02:44:06;;;;;;;1.75;1.30;;;;;;;-148.56;100.00;61375.16;4928318;28;22313;-27
2022/03/29 02:46:33;;;;;;;2.38;1.30;;;;;;;-148.56;100.00;61375.16;4934484;28;20038;-33
2022/03/29 02:48:59;;;;;;;2.17;1.20;;;;;;;-148.56;100.00;61375.16;4945570;28;20145;-28
2022/03/29 02:51:24;;;;;;;2.63;1.40;;;;;;;-148.56;100.00;61375.16;4948004;28;20042;-31
2022/03/29 02:53:50;;;;;;;1.42;1.20;;;;;;;-148.56;100.00;61375.16;4933259;28;20868;-27
2022/03/29 02:56:15;;;;;;;1.35;1.17;;;;;;;-148.56;100.00;61375.16;4925991;28;20859;-32
2022/03/29 02:58:40;;;;;;;1.73;1.33;;;;;;;-148.56;100.00;61375.16;4934078;28;20252;-33
2022/03/29 03:01:06;;;;;;;1.80;1.23;;;;;;;-148.56;100.00;61375.16;4954799;28;20039;-31
2022/03/29 03:03:31;;;;;;;2.20;1.13;;;;;;;-148.56;100.00;61375.16;4946770;28;20038;-29
2022/03/29 03:05:58;;;;;;;1.48;1.08;;;;;;;-148.56;100.00;61375.16;4950179;28;20050;-27
2022/03/29 03:08:23;;;;;;;1.92;1.10;;;;;;;-148.56;100.00;61375.16;4927086;28;20037;-27
2022/03/29 03:10:49;;;;;;;1.75;1.10;;;;;;;-148.56;100.00;61375.16;4922142;28;20030;-29
2022/03/29 03:13:15;;;;;;;1.70;0.98;;;;;;;-148.56;100.00;61375.16;4919846;28;20054;-31
2022/03/29 03:15:41;;;;;;;2.20;1.20;;;;;;;-148.56;100.00;61375.16;4945952;28;20030;-32
2022/03/29 03:18:06;;;;;;;1.13;1.02;;;;;;;-148.56;100.00;61375.16;4950468;28;20038;-28
2022/03/29 03:20:32;;;;;;;2.38;1.27;;;;;;;-148.56;100.00;61375.16;4943742;28;20105;-28
2022/03/29 03:22:57;;;;;;;1.30;1.20;;;;;;;-148.56;100.00;61375.16;4942645;28;20042;-31
2022/03/29 03:25:23;;;;;;;1.83;1.08;;;;;;;-148.56;100.00;61375.16;4915112;28;20884;-26
2022/03/29 03:27:48;;;;;;;1.88;1.13;;;;;;;-148.56;100.00;61375.16;4927901;28;20030;-29
2022/03/29 03:30:14;;;;;;;2.90;1.20;;;;;;;-148.56;100.00;61375.16;4943666;28;21286;-30
2022/03/29 03:32:41;;;;;;;1.85;1.02;;;;;;;-148.56;100.00;61375.16;4927757;28;23583;-26
2022/03/29 03:35:07;;;;;;;1.55;1.40;;;;;;;-148.56;100.00;61375.16;4945815;28;20041;-27
2022/03/29 03:37:33;;;;;;;2.78;1.27;;;;;;;-148.56;100.00;61375.16;4943051;28;20043;-34
2022/03/29 03:39:58;;;;;;;1.58;1.00;;;;;;;-148.56;100.00;61375.16;4951115;28;20034;-35
2022/03/29 03:42:24;;;;;;;1.40;1.20;;;;;;;-148.56;100.00;61375.16;4950712;28;20041;-27
2022/03/29 03:44:49;;;;;;;1.20;1.05;;;;;;;-148.56;100.00;61375.16;4952638;28;20034;-26
2022/03/29 03:47:15;;;;;;;1.27;1.00;;;;;;;-148.56;100.00;61375.16;4951909;28;20034;-28
2022/03/29 03:49:40;;;;;;;4.50;1.40;;;;;;;-148.56;100.00;61375.16;4950589;28;20493;-31
2022/03/29 03:52:07;;;;;;;1.70;1.50;;;;;;;-148.56;100.00;61375.16;4949934;28;20038;-31
2022/03/29 03:54:33;;;;;;;1.65;1.20;;;;;;;-148.56;100.00;61375.16;4947121;28;20532;-30
2022/03/29 03:56:58;;;;;;;1.13;1.02;;;;;;;-148.56;100.00;61375.16;4952869;28;20040;-27
2022/03/29 03:59:24;;;;;;;1.25;1.15;;;;;;;-148.56;100.00;61375.16;4946998;28;20038;-28
2022/03/29 04:01:49;;;;;;;1.45;1.20;;;;;;;-148.56;100.00;61375.16;4952686;28;20998;-27
2022/03/29 04:04:15;;;;;;;1.27;1.10;;;;;;;-148.56;100.00;61375.16;4949817;28;20045;-34
2022/03/29 04:06:40;;;;;;;2.28;1.30;;;;;;;-148.56;100.00;61375.16;4954075;28;20026;-33
2022/03/29 04:09:06;;;;;;;1.85;1.25;;;;;;;-148.56;100.00;61375.16;4951995;28;20034;-27
2022/03/29 04:11:32;;;;;;;0.95;0.90;;;;;;;-148.56;100.00;61375.16;4949424;28;21060;-33
2022/03/29 04:13:58;;;;;;;2.05;1.30;;;;;;;-148.56;100.00;61375.16;4951021;28;20034;-27
2022/03/29 04:16:24;;;;;;;1.25;1.15;;;;;;;-148.56;100.00;61375.16;4952489;28;20097;-33
2022/03/29 04:18:50;;;;;;;1.77;1.20;;;;;;;-148.56;100.00;61375.16;4950018;28;20477;-27
2022/03/29 04:21:16;;;;;;;1.83;1.23;;;;;;;-148.56;100.00;61375.16;4947812;28;20066;-33
2022/03/29 04:23:41;;;;;;;1.30;1.10;;;;;;;-148.56;100.00;61375.16;4950679;28;20794;-30
2022/03/29 04:26:06;;;;;;;2.97;1.17;;;;;;;-148.56;100.00;61375.16;4949900;28;20097;-36
2022/03/29 04:28:32;;;;;;;1.52;1.30;;;;;;;-148.56;100.00;61375.16;4948177;28;20085;-32
2022/03/29 04:30:59;;;;;;;2.00;1.10;;;;;;;-148.56;100.00;61375.16;4949283;28;20481;-30
2022/03/29 04:33:25;;;;;;;1.48;1.15;;;;;;;-148.56;100.00;61375.16;4951992;28;20062;-31
2022/03/29 04:35:50;;;;;;;1.48;0.90;;;;;;;-148.56;100.00;61375.16;4950703;28;20039;-27
2022/03/29 04:38:16;;;;;;;2.15;1.23;;;;;;;-148.56;100.00;61375.16;4947664;28;20117;-30
2022/03/29 04:40:41;;;;;;;1.55;1.20;;;;;;;-148.56;100.00;61375.16;4952856;28;20034;-32
2022/03/29 04:43:07;;;;;;;1.52;1.20;;;;;;;-148.56;100.00;61375.16;4949424;28;20589;-34
2022/03/29 04:45:32;;;;;;;1.67;1.13;;;;;;;-148.56;100.00;61375.16;4934802;28;20056;-32
2022/03/29 04:47:58;;;;;;;1.45;1.10;;;;;;;-148.56;100.00;61375.16;4947775;28;20035;-30
2022/03/29 04:50:23;;;;;;;1.70;1.02;;;;;;;-148.56;100.00;61375.16;4950225;28;20042;-30
2022/03/29 04:52:49;;;;;;;1.13;0.98;;;;;;;-148.56;100.00;61375.16;4946890;28;20026;-33
2022/03/29 04:55:15;;;;;;;1.27;1.00;;;;;;;-148.56;100.00;61375.16;4944504;28;20081;-30
2022/03/29 04:57:44;;;;;;;1.27;1.13;;;;;;;-148.56;100.00;61375.16;4949078;28;20969;-28
2022/03/29 05:00:12;;;;;;;1.50;1.15;;;;;;;-148.56;100.00;61375.16;4947442;28;20031;-32
2022/03/29 05:02:38;;;;;;;1.63;1.20;;;;;;;-148.56;100.00;61375.16;4950609;28;20052;-31
2022/03/29 05:05:03;;;;;;;1.13;0.93;;;;;;;-148.56;100.00;61375.16;4947006;28;20026;-28
2022/03/29 05:07:29;;;;;;;1.95;1.00;;;;;;;-148.56;100.00;61375.16;4948580;28;20866;-29
2022/03/29 05:09:55;;;;;;;3.13;1.25;;;;;;;-148.56;100.00;61375.16;4957239;28;20022;-32
2022/03/29 05:12:20;;;;;;;1.23;1.10;;;;;;;-148.56;100.00;61375.16;4954795;28;20077;-29
2022/03/29 05:14:46;;;;;;;1.20;1.10;;;;;;;-148.56;100.00;61375.16;4954913;28;20035;-33
2022/03/29 05:17:11;;;;;;;1.65;1.35;;;;;;;-148.56;100.00;61375.16;4961553;28;20031;-32
2022/03/29 05:19:36;;;;;;;0.75;0.75;;;;;;;-148.56;100.00;61375.16;4956204;28;23724;-36
2022/03/29 05:22:02;;;;;;;1.05;0.95;;;;;;;-148.56;100.00;61375.16;4939687;28;20034;-34
2022/03/29 05:24:27;;;;;;;1.13;0.98;;;;;;;-148.56;100.00;61375.16;4956740;28;20164;-32
2022/03/29 05:26:53;;;;;;;2.78;1.00;;;;;;;-148.56;100.00;61375.16;4956766;28;20085;-36
2022/03/29 05:29:18;;;;;;;1.30;0.95;;;;;;;-148.56;100.00;61375.16;4959847;28;20035;-33
2022/03/29 05:31:44;;;;;;;1.75;1.00;;;;;;;-148.56;100.00;61375.16;4956955;28;20034;-31
2022/03/29 05:34:09;;;;;;;1.27;1.17;;;;;;;-148.56;100.00;61375.16;4955331;28;20579;-35
2022/03/29 05:36:35;;;;;;;1.90;1.50;;;;;;;-148.56;100.00;61375.16;4956517;28;20030;-37
2022/03/29 05:39:01;;;;;;;1.23;1.13;;;;;;;-148.56;100.00;61375.16;4952525;28;20030;-36
2022/03/29 05:41:27;;;;;;;2.60;1.08;;;;;;;-148.56;100.00;61375.16;4933363;28;20038;-34
2022/03/29 05:43:52;;;;;;;1.30;1.02;;;;;;;-148.56;100.00;61375.16;4947507;28;20034;-30
2022/03/29 05:49:02;;;;;;;1.83;1.33;;;;;;;-148.56;100.00;61375.16;4948812;28;20552;-30
2022/03/29 05:51:28;;;;;;;1.50;1.17;;;;;;;-148.56;100.00;61375.16;4949203;28;20034;-33
2022/03/29 05:53:54;;;;;;;1.70;1.20;;;;;;;-148.56;100.00;61375.16;4948498;28;20034;-32
2022/03/29 05:56:20;;;;;;;2.10;1.20;;;;;;;-148.56;100.00;61375.16;4949002;28;20042;-28
2022/03/29 05:58:46;;;;;;;2.83;1.20;;;;;;;-148.56;100.00;61375.16;4950319;28;20043;-31
2022/03/29 06:01:11;;;;;;;1.10;1.00;;;;;;;-148.56;100.00;61375.16;4946580;28;20757;-33
2022/03/29 06:03:37;;;;;;;1.08;0.98;;;;;;;-148.56;100.00;61375.16;4946720;28;20039;-30
2022/03/29 06:06:02;;;;;;;1.23;1.00;;;;;;;-148.56;100.00;61375.16;4947111;28;20508;-31
2022/03/29 06:08:29;;;;;;;1.40;1.20;;;;;;;-148.56;100.00;61375.16;4944118;28;20641;-33
2022/03/29 06:10:55;;;;;;;1.30;1.20;;;;;;;-148.56;100.00;61375.16;4945667;28;20082;-31
2022/03/29 06:13:20;;;;;;;1.48;1.13;;;;;;;-148.56;100.00;61375.16;4947480;28;20030;-28
2022/03/29 06:15:46;;;;;;;1.45;1.35;;;;;;;-148.56;100.00;61375.16;4945183;28;20031;-28
2022/03/29 06:18:11;;;;;;;1.27;1.17;;;;;;;-148.56;100.00;61375.16;4948422;28;20027;-29
2022/03/29 06:20:37;;;;;;;1.95;1.30;;;;;;;-148.56;100.00;61375.16;4947542;28;20030;-30
2022/03/29 06:23:02;;;;;;;1.63;1.13;;;;;;;-148.56;100.00;61375.16;4947780;28;20034;-30
2022/03/29 06:25:28;;;;;;;1.83;1.10;;;;;;;-148.56;100.00;61375.16;4948080;28;20034;-27
2022/03/29 06:27:54;;;;;;;1.35;1.13;;;;;;;-148.56;100.00;61375.16;4945947;28;20031;-32
2022/03/29 06:30:20;;;;;;;1.83;1.40;;;;;;;-148.56;100.00;61375.16;4947583;28;20046;-27
2022/03/29 06:32:49;;;;;;;0.82;0.82;;;;;;;-148.56;100.00;61375.16;4947489;28;20927;-32
2022/03/29 06:35:17;;;;;;;2.10;1.48;;;;;;;-148.56;100.00;61375.16;4946121;28;20030;-36
2022/03/29 06:37:43;;;;;;;1.40;1.20;;;;;;;-148.56;100.00;61375.16;4944547;28;20022;-30
2022/03/29 06:40:09;;;;;;;5.35;1.75;;;;;;;-148.56;100.00;61375.16;4945947;28;20126;-31
2022/03/29 06:42:34;;;;;;;4.45;1.80;;;;;;;-148.56;100.00;61375.16;4949294;28;20030;-29
2022/03/29 06:45:00;;;;;;;12.65;3.20;;;;;;;-148.56;100.00;61375.16;4950631;28;20038;-27
2022/03/29 06:47:25;;;;;;;9.25;2.97;;;;;;;-148.56;100.00;61375.16;4950047;28;20042;-28
2022/03/29 06:49:52;;;;;;;9.70;3.00;;;;;;;-148.56;100.00;61375.16;4947161;28;20088;-32
2022/03/29 06:52:18;;;;;;;11.00;3.58;;;;;;;-148.56;100.00;61375.16;4948782;28;20040;-28
2022/03/29 06:54:44;;;;;;;11.45;3.45;;;;;;;-148.56;100.00;61375.16;4965319;28;20027;-32
2022/03/29 06:57:09;;;;;;;15.65;4.55;;;;;;;-148.56;100.00;61375.16;4947397;28;20037;-31
2022/03/29 06:59:35;;;;;;;13.70;3.90;;;;;;;-148.56;100.00;61375.16;4952044;28;20426;-29
2022/03/29 07:02:00;;;;;;;8.52;3.58;;;;;;;-148.56;100.00;61375.16;4948828;28;20065;-36
2022/03/29 07:04:25;;;;;;;10.00;3.55;;;;;;;-148.56;100.00;61375.16;4954217;28;20389;-27
2022/03/29 07:06:51;;;;;;;9.45;3.25;;;;;;;-148.56;100.00;61375.16;4948499;28;20037;-33
2022/03/29 07:12:00;;;;;;;9.07;3.15;;;;;;;-148.56;100.00;61375.16;4941408;28;20045;-31
2022/03/29 07:14:26;;;;;;;8.85;3.50;;;;;;;-148.56;100.00;61375.16;4946053;28;20030;-28
2022/03/29 07:16:51;;;;;;;8.68;3.28;;;;;;;-148.56;100.00;61375.16;4943361;28;20033;-29
2022/03/29 07:19:17;;;;;;;7.78;3.20;;;;;;;-148.56;100.00;61375.16;4950943;28;20034;-32
2022/03/29 07:21:43;;;;;;;8.60;3.25;;;;;;;-148.56;100.00;61375.16;4947162;28;20371;-28
2022/03/29 07:24:09;;;;;;;10.57;3.83;;;;;;;-148.56;100.00;61375.16;4927982;28;20035;-31
2022/03/29 07:26:35;;;;;;;7.30;3.20;;;;;;;-148.56;100.00;61375.16;4946934;28;20483;-30
2022/03/29 07:29:01;;;;;;;6.75;3.40;;;;;;;-148.56;100.00;61375.16;4926539;28;20041;-31
2022/03/29 07:31:26;;;;;;;6.40;3.25;;;;;;;-148.56;100.00;61375.16;4946872;28;20121;-27
2022/03/29 07:33:52;;;;;;;7.50;3.30;;;;;;;-148.56;100.00;61375.16;4942812;28;20031;-31
2022/03/29 07:36:17;;;;;;;7.90;3.63;;;;;;;-148.56;100.00;61375.16;4944082;28;20374;-32
2022/03/29 07:38:42;;;;;;;7.30;3.30;;;;;;;-148.56;100.00;61375.16;4942925;28;21107;-34
2022/03/29 07:41:08;;;;;;;7.75;3.22;;;;;;;-148.56;100.00;61375.16;4927952;28;20038;-34
2022/03/29 07:43:33;;;;;;;12.68;4.30;;;;;;;-148.56;100.00;61375.16;4947650;28;20026;-30
2022/03/29 07:45:59;;;;;;;11.65;3.40;;;;;;;-148.56;100.00;61375.16;4951981;28;20037;-33
2022/03/29 07:48:24;;;;;;;10.07;3.67;;;;;;;-148.56;100.00;61375.16;4950351;28;20030;-33
2022/03/29 07:50:51;;;;;;;14.25;3.83;;;;;;;-148.56;100.00;61375.16;4944140;28;20162;-32
2022/03/29 07:53:16;;;;;;;9.25;3.08;;;;;;;-148.56;100.00;61375.16;4943673;28;20030;-30
2022/03/29 07:55:42;;;;;;;7.30;2.65;;;;;;;-148.56;100.00;61375.16;4940940;28;20096;-31
2022/03/29 07:58:08;;;;;;;9.85;3.03;;;;;;;-148.56;100.00;61375.16;4947661;28;20034;-31
2022/03/29 08:00:33;;;;;;;6.63;2.70;;;;;;;-148.56;100.00;61375.16;4948287;28;20086;-33
2022/03/29 08:03:06;;;;;;;5.47;3.10;;;;;;;-148.56;100.00;61375.16;4942774;28;20567;-29
2022/03/29 08:05:32;;;;;;;8.88;2.88;;;;;;;-148.56;100.00;61375.16;4946738;28;20113;-27
2022/03/29 08:07:58;;;;;;;9.77;3.20;;;;;;;-148.56;100.00;61375.16;4945376;28;22134;-27
2022/03/29 08:10:25;;;;;;;6.90;2.92;;;;;;;-148.56;100.00;61375.16;4947379;28;20038;-30
2022/03/29 08:12:51;;;;;;;7.25;3.28;;;;;;;-148.56;100.00;61375.16;4938300;28;20093;-32
2022/03/29 08:15:16;;;;;;;4.72;2.83;;;;;;;-148.56;100.00;61375.16;4944919;28;20038;-28
2022/03/29 08:17:42;;;;;;;5.82;3.25;;;;;;;-148.56;100.00;61375.16;4946286;28;20022;-32
2022/03/29 08:20:08;;;;;;;8.15;3.05;;;;;;;-148.56;100.00;61375.16;4939828;28;20062;-32
2022/03/29 08:22:33;;;;;;;8.38;3.10;;;;;;;-148.56;100.00;61375.16;4926104;28;21029;-35
2022/03/29 08:24:59;;;;;;;4.38;2.65;;;;;;;-148.56;100.00;61375.16;4940141;28;20031;-30
2022/03/29 08:27:25;;;;;;;5.07;2.80;;;;;;;-148.56;100.00;61375.16;4943948;28;20042;-31
2022/03/29 08:29:50;;;;;;;5.57;2.90;;;;;;;-148.56;100.00;61375.16;4952011;28;20445;-31
2022/03/29 08:32:16;;;;;;;29.48;9.38;;;;;;;-148.56;100.00;61375.16;4943547;28;20835;-37
2022/03/29 08:34:41;;;;;;;20.23;9.43;;;;;;;-148.56;100.00;61375.16;4943310;28;20676;-30
2022/03/29 08:37:06;;;;;;;40.67;11.45;;;;;;;-148.56;100.00;61375.16;4937378;28;20030;-36
2022/03/29 08:39:32;;;;;;;27.33;14.48;;;;;;;-148.56;100.00;61375.16;4944885;28;20033;-33
2022/03/29 08:45:19;;;;;;;23.52;9.77;;;;;;;-148.56;100.00;61375.16;4945097;28;20048;-31
2022/03/29 08:47:45;;;;;;;30.40;10.15;;;;;;;-148.56;100.00;61375.16;4913027;28;20034;-29
2022/03/29 08:50:12;;;;;;;16.00;9.88;;;;;;;-148.56;100.00;61375.16;4950666;28;20065;-32
2022/03/29 08:52:39;;;;;;;26.23;10.25;;;;;;;-148.56;100.00;61375.16;4961253;28;20981;-31
2022/03/29 08:55:05;;;;;;;21.27;9.90;;;;;;;-148.56;100.00;61375.16;4942358;28;20123;-31
2022/03/29 08:57:30;;;;;;;17.67;9.13;;;;;;;-148.56;100.00;61375.16;4941626;28;20026;-32
2022/03/29 08:59:56;;;;;;;20.02;8.43;;;;;;;-148.56;100.00;61375.16;4930741;28;20289;-32
2022/03/29 09:02:22;;;;;;;17.52;8.43;;;;;;;-148.56;100.00;61375.16;4947857;28;22042;-28
2022/03/29 09:05:06;;;;;;;18.63;8.50;;;;;;;-148.56;100.00;61375.16;4952608;28;20030;-32
2022/03/29 09:07:50;;;;;;;15.60;7.85;;;;;;;-148.56;100.00;61375.16;4947658;28;20109;-25
2022/03/29 09:10:15;;;;;;;12.07;7.53;;;;;;;-148.56;100.00;61375.16;4954099;28;20030;-32
2022/03/29 09:12:41;;;;;;;12.82;6.53;;;;;;;-148.56;100.00;61375.16;4941660;28;20631;-30
2022/03/29 09:15:06;;;;;;;15.82;7.07;;;;;;;-148.56;100.00;61375.16;4957550;28;20750;-32
2022/03/29 09:17:39;;;;;;;19.05;6.88;;;;;;;-148.56;100.00;61375.16;4965975;28;20038;-30
2022/03/29 09:20:07;;;;;;;24.67;6.72;;;;;;;-148.56;100.00;61375.16;4960521;28;20078;-34
2022/03/29 09:22:46;;;;;;;16.45;5.68;;;;;;;-148.56;100.00;61375.16;4967088;28;20038;-30
2022/03/29 09:25:33;;;;;;;15.38;6.00;;;;;;;-148.56;100.00;61375.16;4964227;28;20038;-30
2022/03/29 09:28:00;;;;;;;11.73;6.07;;;;;;;-148.56;100.00;61375.16;4962188;28;20034;-29
2022/03/29 09:30:27;;;;;;;10.25;5.82;;;;;;;-148.56;100.00;61375.16;4968032;28;20031;-32
2022/03/29 09:33:19;;;;;;;14.65;5.57;;;;;;;-148.56;100.00;61375.16;4971394;28;20541;-34
2022/03/29 09:35:57;;;;;;;10.40;4.95;;;;;;;-148.56;100.00;61375.16;4970172;28;20042;-32
2022/03/29 09:38:27;;;;;;;8.25;4.97;;;;;;;-148.56;100.00;61375.16;4959506;28;20046;-32
2022/03/29 09:40:54;;;;;;;10.57;5.00;;;;;;;-148.56;100.00;61375.16;4959301;28;20026;-28
2022/03/29 09:43:21;;;;;;;19.08;5.43;;;;;;;-148.56;100.00;61375.16;4960512;28;20050;-31
2022/03/29 09:45:55;;;;;;;9.15;4.60;;;;;;;-148.56;100.00;61375.16;4960664;28;20045;-33
2022/03/29 09:48:40;;;;;;;9.95;4.85;;;;;;;-148.56;100.00;61375.16;4954765;28;20030;-30
2022/03/29 09:51:08;;;;;;;9.23;4.82;;;;;;;-148.56;100.00;61375.16;4948551;28;20029;-33
2022/03/29 09:53:41;;;;;;;10.88;4.70;;;;;;;-148.56;100.00;61375.16;4958163;28;20089;-32
2022/03/29 09:56:10;;;;;;;9.20;4.93;;;;;;;-148.56;100.00;61375.16;4954601;28;20034;-26
2022/03/29 09:58:35;;;;;;;16.30;4.47;;;;;;;-148.56;100.00;61375.16;4957947;28;20038;-31
2022/03/29 10:01:03;;;;;;;6.80;4.63;;;;;;;-148.56;100.00;61375.16;4943379;28;20035;-30
2022/03/29 10:03:29;;;;;;;6.75;4.18;;;;;;;-148.56;100.00;61375.16;4957016;28;21788;-31
2022/03/29 10:06:01;;;;;;;11.52;3.65;;;;;;;-148.56;100.00;61375.16;4927046;28;20027;-29
2022/03/29 10:11:15;;;;;;;8.90;4.28;;;;;;;-148.56;100.00;61375.16;4943040;28;20562;-32
2022/03/29 10:13:41;;;;;;;6.60;3.63;;;;;;;-148.56;100.00;61375.16;4953162;28;20041;-35
2022/03/29 10:16:10;;;;;;;8.63;3.88;;;;;;;-148.56;100.00;61375.16;4952967;28;20038;-32
2022/03/29 10:18:38;;;;;;;8.20;4.05;;;;;;;-148.56;100.00;61375.16;4955602;28;20026;-30
2022/03/29 10:21:09;;;;;;;11.27;3.92;;;;;;;-148.56;100.00;61375.16;4930532;28;20910;-33
2022/03/29 10:23:34;;;;;;;8.43;4.20;;;;;;;-148.56;100.00;61375.16;4956284;28;20042;-29
2022/03/29 10:26:00;;;;;;;7.82;3.83;;;;;;;-148.56;100.00;61375.16;4923948;28;20045;-31
2022/03/29 10:28:28;;;;;;;9.30;3.80;;;;;;;-148.56;100.00;61375.16;4963329;28;20046;-31
2022/03/29 10:30:54;;;;;;;6.03;3.78;;;;;;;-148.56;100.00;61375.16;4944010;28;20021;-34
2022/03/29 10:33:23;;;;;;;7.65;3.70;;;;;;;-148.56;100.00;61375.16;4939478;28;20034;-31
2022/03/29 10:36:00;;;;;;;6.78;3.88;;;;;;;-148.56;100.00;61375.16;4956661;28;20052;-34
2022/03/29 10:38:47;;;;;;;6.28;3.72;;;;;;;-148.56;100.00;61375.16;4957952;28;20121;-31
2022/03/29 10:41:31;;;;;;;6.43;3.60;;;;;;;-148.56;100.00;61375.16;4958090;28;20062;-30
2022/03/29 10:44:11;;;;;;;5.55;3.72;;;;;;;-148.56;100.00;61375.16;4960551;28;20172;-33
2022/03/29 10:46:37;;;;;;;7.18;3.80;;;;;;;-148.56;100.00;61375.16;4939868;28;20938;-30
2022/03/29 10:49:23;;;;;;;7.78;3.45;;;;;;;-148.56;100.00;61375.16;4955889;28;20031;-33
2022/03/29 10:51:59;;;;;;;7.50;3.50;;;;;;;-148.56;100.00;61375.16;4955697;28;20598;-28
2022/03/29 10:55:12;;;;;;;4.60;3.50;;;;;;;-148.56;100.00;61375.16;4966440;28;20723;-33
2022/03/29 10:57:38;;;;;;;6.28;3.50;;;;;;;-148.56;100.00;61375.16;4962967;28;20046;-31
2022/03/29 11:00:10;;;;;;;6.35;3.53;;;;;;;-148.56;100.00;61375.16;4970262;28;20036;-31
2022/03/29 11:02:36;;;;;;;7.20;3.50;;;;;;;-148.56;100.00;61375.16;4966031;28;20528;-33
2022/03/29 11:05:09;;;;;;;5.40;3.30;;;;;;;-148.56;100.00;61375.16;4949143;28;20038;-30
2022/03/29 11:07:39;;;;;;;4.85;3.42;;;;;;;-148.56;100.00;61375.16;4948942;28;20034;-30
2022/03/29 11:10:14;;;;;;;5.20;2.97;;;;;;;-148.56;100.00;61375.16;4946748;28;20121;-31
2022/03/29 11:12:49;;;;;;;4.45;3.20;;;;;;;-148.56;100.00;61375.16;4968843;28;20045;-33
2022/03/29 11:15:36;;;;;;;6.15;3.10;;;;;;;-148.56;100.00;61375.16;4965610;28;20022;-31
2022/03/29 11:18:04;;;;;;;6.55;3.33;;;;;;;-148.56;100.00;61375.16;4957920;28;20185;-32
2022/03/29 11:20:38;;;;;;;4.53;3.13;;;;;;;-148.56;100.00;61375.16;4960280;28;20042;-31